»·PEaware :: N350JP KSAN-KSNA

N350JP :: KSAN-KSNA

FLIGHT INFORMATION

Flight Status: Arrived
Operator: Privately registered:
United States
More flights under this callsign
Pilot: Matthew D. (16794)
Aircraft: BEECH AIRCRAFT A90-E90 KING AIR
(BE9L)
More flights by this aircraft type
Origin: KSAN San Diego Intl-Lindbergh
United States
Destination: KSNA John Wayne-Orange Co
United States
More flights between these airports :: More routes between these airports
Route: PEBLE6 SLI
File this flight plan on PilotEdge
Remarks: DOF / 171013 REG / N350JP RMK / TCAS SIMBRIEF
Altitude:
(Current/Filed)
10,000ft
Speed:
(Current/Filed)
298kts
Departed: 12-Oct-17 07:27 PM
Arrived: 12-Oct-17 08:23 PM
Distance/Time
Traveled:
66nm/0:56
Distance/Time
To Go:
Arrived

Flight Plot

Page will automatically refresh every two minutes.


Map Options




Map Legend


Flown Route
Filed Route
Departure Airport
Arrival Airport
Navaid (VOR, NDB)
Fix

Horizontal Profiles

Position Reports

Time Latitude Longitude Heading Altitude Ground
Speed
12-Oct-17 19:13 32.703927 -117.212007 359 22ft 0kts
12-Oct-17 19:14 32.703927 -117.212007 359 22ft 0kts
12-Oct-17 19:15 32.703927 -117.212007 359 22ft 0kts
12-Oct-17 19:16 32.703927 -117.212007 359 22ft 0kts
12-Oct-17 19:17 32.703927 -117.212007 359 22ft 0kts
12-Oct-17 19:18 32.703927 -117.212007 359 22ft 0kts
12-Oct-17 19:19 32.703927 -117.212007 359 22ft 0kts
12-Oct-17 19:20 32.703927 -117.212007 359 22ft 0kts
12-Oct-17 19:21 32.703927 -117.212007 359 22ft 0kts
12-Oct-17 19:22 32.703927 -117.212007 359 22ft 0kts
12-Oct-17 19:24 32.703927 -117.212007 359 22ft 0kts
12-Oct-17 19:25 32.703927 -117.212007 359 22ft 0kts
12-Oct-17 19:26 32.732414 -117.176633 194 20ft 0kts
12-Oct-17 19:27 32.732414 -117.176633 194 20ft 0kts
12-Oct-17 19:28 32.732414 -117.176633 194 20ft 0kts
12-Oct-17 19:29 32.731196 -117.176628 189 18ft 0kts
12-Oct-17 19:30 32.731196 -117.176628 189 18ft 0kts
12-Oct-17 19:31 32.731193 -117.176629 189 18ft 1kts
12-Oct-17 19:32 32.732568 -117.185742 284 85ft 105kts
12-Oct-17 19:33 32.734627 -117.209627 278 1518ft 106kts
12-Oct-17 19:34 32.743054 -117.234231 303 2439ft 140kts
12-Oct-17 19:35 32.762114 -117.267327 303 2721ft 158kts
12-Oct-17 19:36 32.780242 -117.298719 303 3110ft 168kts
12-Oct-17 19:37 32.798214 -117.329848 303 3567ft 169kts
12-Oct-17 19:38 32.823027 -117.353993 328 4315ft 161kts
12-Oct-17 19:39 32.850872 -117.372505 328 4998ft 160kts
12-Oct-17 19:40 32.878034 -117.390568 328 5645ft 162kts
12-Oct-17 19:41 32.905202 -117.413233 305 6328ft 162kts
12-Oct-17 19:42 32.925916 -117.446186 307 7041ft 164kts
12-Oct-17 19:43 32.947650 -117.479031 306 7758ft 165kts
12-Oct-17 19:44 32.970686 -117.514167 306 8006ft 188kts
12-Oct-17 19:45 32.997086 -117.554613 306 8001ft 201kts
12-Oct-17 19:46 33.025518 -117.598280 306 7999ft 203kts
12-Oct-17 19:47 33.053089 -117.640765 306 7998ft 200kts
12-Oct-17 19:48 33.079987 -117.682275 306 7998ft 198kts
12-Oct-17 19:49 33.106162 -117.722722 306 7997ft 198kts
12-Oct-17 19:50 33.131658 -117.762116 306 7996ft 197kts
12-Oct-17 19:51 33.157179 -117.800370 307 7998ft 197kts
12-Oct-17 19:52 33.186905 -117.836453 338 8001ft 200kts
12-Oct-17 19:53 33.227994 -117.852776 341 7999ft 201kts
12-Oct-17 19:54 33.270664 -117.867460 352 7915ft 206kts
12-Oct-17 19:55 33.318012 -117.873652 351 7423ft 217kts
12-Oct-17 19:56 33.365928 -117.879996 352 6920ft 214kts
12-Oct-17 19:57 33.411868 -117.886125 352 6436ft 212kts
12-Oct-17 19:58 33.453050 -117.891676 352 6003ft 211kts
12-Oct-17 19:59 33.494081 -117.897212 352 5707ft 204kts
12-Oct-17 20:00 33.534858 -117.902574 352 5853ft 190kts
12-Oct-17 20:01 33.567772 -117.906791 352 5976ft 189kts
12-Oct-17 20:02 33.602066 -117.911165 352 5975ft 192kts
12-Oct-17 20:03 33.636309 -117.915522 352 5975ft 193kts
12-Oct-17 20:04 33.669557 -117.919751 352 5838ft 198kts
12-Oct-17 20:05 33.701663 -117.923810 351 5269ft 182kts
12-Oct-17 20:06 33.731842 -117.915875 20 4632ft 187kts
12-Oct-17 20:07 33.760649 -117.900366 20 4074ft 187kts
12-Oct-17 20:08 33.789544 -117.884914 22 3526ft 184kts
12-Oct-17 20:09 33.816952 -117.870432 20 2963ft 182kts
12-Oct-17 20:10 33.845953 -117.855243 20 2407ft 183kts
12-Oct-17 20:11 33.873596 -117.840811 20 2439ft 154kts
12-Oct-17 20:12 33.895109 -117.829236 19 2751ft 135kts
12-Oct-17 20:13 33.913814 -117.813179 60 2781ft 144kts
12-Oct-17 20:14 33.911860 -117.785771 109 2963ft 139kts
12-Oct-17 20:15 33.902160 -117.757008 109 3175ft 137kts
12-Oct-17 20:16 33.887145 -117.731089 154 3277ft 141kts
12-Oct-17 20:17 33.861797 -117.729071 181 3281ft 145kts
12-Oct-17 20:18 33.835714 -117.732254 180 3287ft 148kts
12-Oct-17 20:19 33.812374 -117.744531 229 3260ft 145kts
12-Oct-17 20:20 33.795156 -117.770094 230 2983ft 155kts
12-Oct-17 20:21 33.777867 -117.795860 230 2713ft 159kts
12-Oct-17 20:22 33.756394 -117.817191 210 2563ft 125kts
12-Oct-17 20:23 33.739619 -117.828143 209 1885ft 88kts
12-Oct-17 20:24 33.725121 -117.834501 208 1293ft 88kts
12-Oct-17 20:25 33.711753 -117.845563 210 835ft 88kts
12-Oct-17 20:26 33.697556 -117.855159 209 436ft 79kts
12-Oct-17 20:27 33.686519 -117.861976 210 208ft 75kts
12-Oct-17 20:28 33.678048 -117.867458 218 45ft 15kts
12-Oct-17 20:29 33.677974 -117.868166 299 46ft 3kts
12-Oct-17 20:30 33.678299 -117.869152 11 46ft 4kts
12-Oct-17 20:31 33.678321 -117.869109 83 46ft 0kts
12-Oct-17 20:31 33.678321 -117.869109 83 46ft 0kts
12-Oct-17 20:33 33.678321 -117.869109 83 46ft 0kts
12-Oct-17 20:34 33.678321 -117.869109 83 46ft 0kts
12-Oct-17 20:34 33.678321 -117.869109 83 46ft 0kts

Navigation Log

Ident Type
1. KSAN Airport
2. MELDY Fix
3. PEBLE Fix
4. SLI Navaid
5. KSNA Airport